Flight Track Log - Related Links

Times and Time Zones

All times are in EDT time to prevent confusion due to time zone crossing. See the JBU732 flight status page for this flight to view local times or setup timezone preferences in your user account.

Time Position Orientation Groundspeed Altitude Reporting Facility
EDT Latitude Longitude Course Direction KTS MPH feet Rate Location/Type
Fri 11:25:50 AM 18.5167 -67.1167 309° West 220 253 2,000  Level San Juan Center
Fri 11:26:50 AM 18.5500 -67.1833 298° West 270 311 3,800 2,750 Climbing San Juan Center
Fri 11:27:00 AM 18.7001 -67.3767 311° West  Level FlightAware Approximate
Fri 11:27:50 AM 18.6000 -67.2500 308° West 300 345 7,500  Level San Juan Center
Fri 11:28:00 AM 18.7742 -67.4779 305° West  Level FlightAware Approximate
Fri 11:28:51 AM 18.6500 -67.3167 308° West 310 357 10,400  Level San Juan Center
Fri 11:29:00 AM 18.8468 -67.5801 317° Northwest  Level FlightAware Approximate
Fri 11:29:51 AM 18.7000 -67.4000 302° West 360 414 11,200  Level San Juan Center
Fri 11:30:00 AM 18.9243 -67.6787 309° West  Level FlightAware Approximate
Fri 11:30:51 AM 18.7833 -67.4833 317° Northwest 390 449 13,300  Level San Juan Center
Fri 11:31:00 AM 19.0013 -67.7777 309° West  Level FlightAware Approximate
Fri 11:31:51 AM 18.8500 -67.5833 305° West 390 449 16,000  Level San Juan Center
Fri 11:32:52 AM 18.9167 -67.6667 310° West 400 460 17,700 1,785 Climbing San Juan Center
Fri 11:33:52 AM 18.9833 -67.7667 305° West 410 472 19,600 1,750 Climbing San Juan Center
Fri 11:34:52 AM 19.0667 -67.8667 311° West 420 483 21,200 1,488 Climbing San Juan Center
Fri 11:35:53 AM 19.1333 -67.9667 305° West 430 495 22,600 1,388 Climbing San Juan Center
Fri 11:36:53 AM 19.2000 -68.0667 305° West 420 483 24,000 1,300 Climbing San Juan Center
Fri 11:37:53 AM 19.2833 -68.1667 311° West 430 495 25,200 1,190 Climbing San Juan Center
Fri 11:38:54 AM 19.3500 -68.2667 305° West 440 506 26,400 1,091 Climbing San Juan Center
Fri 11:39:54 AM 19.4333 -68.3667 311° West 450 518 27,400 1,000 Climbing San Juan Center
Fri 11:40:54 AM 19.5167 -68.4833 307° West 450 518 28,400 942 Climbing San Juan Center
Fri 11:41:55 AM 19.5833 -68.5833 305° West 460 529 29,300 1,188 Climbing San Juan Center
Fri 11:42:30 AM 19.6519 -68.6764 308° West 472 543 30,300 1,389 Climbing Miami Center
Fri 11:43:30 AM 19.7303 -68.7839 308° West 461 531 31,500 1,300 Climbing Miami Center
Fri 11:44:30 AM 19.8103 -68.8850 310° West 461 531 32,900 1,200 Climbing Miami Center
Fri 11:45:30 AM 19.8861 -68.9883 308° West 456 525 33,900 550 Climbing Miami Center
Fri 11:46:30 AM 19.9600 -69.0897 308° West 446 513 34,000 50 Climbing Miami Center
Fri 11:47:30 AM 20.0336 -69.1914 308° West 440 506 34,000  Level Miami Center
Fri 11:48:30 AM 20.0975 -69.3025 301° West 440 506 34,000  Level Miami Center
Fri 11:49:30 AM 20.1628 -69.4092 303° West 440 506 34,000  Level Miami Center
Fri 11:50:30 AM 20.2283 -69.5181 303° West 440 506 34,000  Level Miami Center
Fri 11:51:30 AM 20.2961 -69.6292 303° West 440 506 34,000  Level Miami Center
Fri 11:52:30 AM 20.3636 -69.7383 303° West 440 506 34,000  Level Miami Center
Fri 11:53:30 AM 20.4289 -69.8456 303° West 440 506 34,000  Level Miami Center
Fri 11:54:30 AM 20.4942 -69.9550 303° West 440 506 34,000  Level Miami Center
Fri 11:55:30 AM 20.5594 -70.0622 303° West 440 506 34,000  Level Miami Center
Fri 11:56:30 AM 20.6267 -70.1717 303° West 440 506 34,000  Level Miami Center
Fri 11:57:30 AM 20.6939 -70.2814 303° West 440 506 34,000  Level Miami Center
Fri 11:58:30 AM 20.7589 -70.3936 302° West 440 506 34,000  Level Miami Center
Fri 11:59:30 AM 20.8261 -70.5033 303° West 440 506 34,000  Level Miami Center
Fri 12:00:30 PM 20.8931 -70.6156 303° West 440 506 34,000  Level Miami Center
Fri 12:01:30 PM 20.9581 -70.7258 302° West 440 506 34,000  Level Miami Center
Fri 12:02:30 PM 21.0228 -70.8339 303° West 440 506 34,000  Level Miami Center
Fri 12:03:30 PM 21.0875 -70.9442 302° West 440 506 34,000  Level Miami Center
Fri 12:04:30 PM 21.1411 -71.0353 302° West 440 506 34,000  Level Miami Center
Fri 12:05:30 PM 21.2103 -71.1592 301° West 440 506 34,000  Level Miami Center
Fri 12:06:30 PM 21.2750 -71.2742 301° West 446 513 34,000  Level Miami Center
Fri 12:07:30 PM 21.3436 -71.3828 304° West 446 513 34,000  Level Miami Center
Fri 12:08:30 PM 21.4122 -71.4958 303° West 446 513 34,000  Level Miami Center
Fri 12:09:30 PM 21.4767 -71.6069 302° West 441 507 34,000  Level Miami Center
Fri 12:10:30 PM 21.5428 -71.7181 303° West 441 507 34,000  Level Miami Center
Fri 12:11:30 PM 21.6072 -71.8292 302° West 441 507 34,000  Level Miami Center
Fri 12:12:30 PM 21.6733 -71.9406 303° West 441 507 34,000  Level Miami Center
Fri 12:13:30 PM 21.7372 -72.0500 302° West 441 507 34,000  Level Miami Center
Fri 12:14:30 PM 21.8014 -72.1617 302° West 441 507 34,000  Level Miami Center
Fri 12:15:30 PM 21.8653 -72.2756 301° West 441 507 34,000  Level Miami Center
Fri 12:16:30 PM 21.9333 -72.3894 303° West 441 507 34,000  Level Miami Center
Fri 12:17:30 PM 21.9950 -72.5017 301° West 441 507 34,000  Level Miami Center
Fri 12:18:30 PM 22.0608 -72.6158 302° West 441 507 34,000  Level Miami Center
Fri 12:19:30 PM 22.1208 -72.7417 297° West 441 507 34,000  Level Miami Center
Fri 12:20:30 PM 22.1678 -72.8633 293° West 441 507 34,000  Level Miami Center
Fri 12:21:30 PM 22.2147 -72.9853 293° West 441 507 34,000  Level Miami Center
Fri 12:22:30 PM 22.2639 -73.1072 294° West 441 507 34,000  Level Miami Center
Fri 12:23:30 PM 22.3189 -73.2247 297° West 441 507 34,000  Level Miami Center
Fri 12:24:30 PM 22.3864 -73.3394 302° West 441 507 34,000  Level Miami Center
Fri 12:25:30 PM 22.4475 -73.4525 300° West 441 507 34,000  Level Miami Center
Fri 12:26:30 PM 22.5147 -73.5675 302° West 441 507 34,000  Level Miami Center
Fri 12:27:30 PM 22.5839 -73.6806 304° West 446 513 34,000  Level Miami Center
Fri 12:28:30 PM 22.6469 -73.7981 300° West 446 513 34,000  Level Miami Center
Fri 12:29:30 PM 22.6994 -73.9208 295° West 446 513 34,000  Level Miami Center
Fri 12:30:30 PM 22.7497 -74.0411 294° West 446 513 34,000  Level Miami Center
Fri 12:31:30 PM 22.8019 -74.1436 299° West 441 507 34,000  Level Miami Center
Fri 12:32:30 PM 22.8542 -74.2667 295° West 441 507 34,000  Level Miami Center
Fri 12:33:30 PM 22.9083 -74.3850 296° West 441 507 34,000  Level Miami Center
Fri 12:34:30 PM 22.9606 -74.5081 295° West 441 507 34,000  Level Miami Center
Fri 12:35:30 PM 23.0186 -74.6289 298° West 441 507 34,000  Level Miami Center
Fri 12:36:30 PM 23.0644 -74.7544 292° West 441 507 34,000  Level Miami Center
Fri 12:37:30 PM 23.1078 -74.8803 291° West 441 507 34,000  Level Miami Center
Fri 12:38:30 PM 23.1678 -74.9992 299° West 441 507 34,000  Level Miami Center
Fri 12:39:30 PM 23.2342 -75.1133 302° West 448 516 34,000  Level Miami Center
Fri 12:40:30 PM 23.3003 -75.2303 302° West 453 521 34,000  Level Miami Center
Fri 12:41:30 PM 23.3661 -75.3469 302° West 459 528 34,000  Level Miami Center
Fri 12:42:30 PM 23.4319 -75.4639 302° West 459 528 34,000  Level Miami Center
Fri 12:43:30 PM 23.4978 -75.5789 302° West 459 528 34,000  Level Miami Center
Fri 12:44:30 PM 23.5764 -75.7164 302° West 464 534 34,000  Level Miami Center
Fri 12:45:30 PM 23.6461 -75.8381 302° West 478 550 34,000  Level Miami Center
Fri 12:46:30 PM 23.7097 -75.9556 301° West 472 543 34,000  Level Miami Center
Fri 12:47:30 PM 23.7814 -76.0731 304° West 466 536 34,000  Level Miami Center
Fri 12:48:30 PM 23.8508 -76.1908 303° West 466 536 34,000  Level Miami Center
Fri 12:49:30 PM 23.9183 -76.3133 301° West 466 536 34,000  Level Miami Center
Fri 12:50:30 PM 23.9897 -76.4358 303° West 466 536 34,000  Level Miami Center
Fri 12:51:30 PM 24.0569 -76.5539 302° West 466 536 34,000  Level Miami Center
Fri 12:52:30 PM 24.1281 -76.6767 302° West 466 536 34,000  Level Miami Center
Fri 12:53:30 PM 24.1908 -76.7814 303° West 466 536 34,000  Level Miami Center
Fri 12:54:30 PM 24.2600 -76.9022 302° West 466 536 34,000  Level Miami Center
Fri 12:55:30 PM 24.3289 -77.0253 302° West 466 536 34,000  Level Miami Center
Fri 12:56:30 PM 24.3975 -77.1464 302° West 466 536 34,000  Level Miami Center
Fri 12:57:30 PM 24.4683 -77.2697 302° West 466 536 34,000  Level Miami Center
Fri 12:58:30 PM 24.5411 -77.3867 304° West 466 536 34,000  Level Miami Center
Fri 12:59:30 PM 24.6369 -77.4875 316° Northwest 471 542 34,000  Level Miami Center
Fri 01:00:30 PM 24.7306 -77.5911 315° West 471 542 34,000  Level Miami Center
Fri 01:01:30 PM 24.8261 -77.6947 315° West 476 548 34,000  Level Miami Center
Fri 01:02:30 PM 24.9194 -77.7983 315° West 476 548 34,000  Level Miami Center
Fri 01:03:30 PM 25.0044 -77.9114 310° West 476 548 34,000  Level Miami Center
Fri 01:04:30 PM 25.0892 -78.0222 310° West 476 548 34,000  Level Miami Center
Fri 01:05:30 PM 25.1614 -78.1422 304° West 476 548 34,000  Level Miami Center
Fri 01:06:30 PM 25.2314 -78.2672 302° West 476 548 34,000  Level Miami Center
Fri 01:07:30 PM 25.3011 -78.4011 300° West 471 542 34,000  Level Miami Center
Fri 01:08:30 PM 25.3625 -78.5283 298° West 466 536 34,000  Level Miami Center
Fri 01:09:30 PM 25.4258 -78.6536 299° West 466 536 34,000  Level Miami Center
Fri 01:10:30 PM 25.4806 -78.7833 295° West 461 531 34,000  Level Miami Center
Fri 01:11:30 PM 25.5353 -78.9131 295° West 461 531 34,000  Level Miami Center
Fri 01:12:30 PM 25.5878 -79.0292 297° West 461 531 34,000  Level Miami Center
Fri 01:13:30 PM 25.6444 -79.1592 296° West 461 531 34,000 -50 Level Miami Center
Fri 01:14:30 PM 25.6967 -79.2894 294° West 461 531 33,900  Descending Miami Center
Fri 01:15:30 PM 25.7550 -79.4197 296° West 461 531 34,000 50 Climbing Miami Center
Fri 01:16:30 PM 25.8111 -79.5478 296° West 466 536 34,000 -50 Level Miami Center
Fri 01:17:30 PM 25.8672 -79.6808 295° West 466 536 33,900 -200 Descending Miami Center
Fri 01:18:30 PM 25.9231 -79.8114 295° West 466 536 33,600 -650 Descending Miami Center
Fri 01:19:30 PM 25.9808 -79.9444 296° West 471 542 32,600 -1,150 Descending Miami Center
Fri 01:20:30 PM 26.0536 -80.0667 304° West 471 542 31,300 -1,350 Descending Miami Center
Fri 01:21:30 PM 26.1472 -80.1733 314° West 476 548 29,900 -650 Descending Miami Center
Fri 01:22:30 PM 26.2642 -80.2647 325° Northwest 462 532 30,000 -150 Climbing Miami Center
Fri 01:23:30 PM 26.3778 -80.3236 335° Northwest 455 524 29,600 -750 Descending Miami Center
Fri 01:24:30 PM 26.4953 -80.3781 337° Northwest 450 518 28,500 -1,000 Descending Miami Center
Fri 01:25:30 PM 26.6067 -80.4372 335° Northwest 450 518 27,600 -950 Descending Miami Center
Fri 01:26:30 PM 26.7181 -80.4917 336° Northwest 444 511 26,600 -950 Descending Miami Center
Fri 01:27:30 PM 26.8214 -80.5439 336° Northwest 430 495 25,700 -950 Descending Miami Center
Fri 01:28:30 PM 26.9222 -80.5958 335° Northwest 410 472 24,700 -1,000 Descending Miami Center
Fri 01:29:30 PM 27.0233 -80.6481 335° Northwest 399 459 23,700 -1,250 Descending Miami Center
Fri 01:30:30 PM 27.1222 -80.6956 337° Northwest 392 451 22,200 -1,900 Descending Miami Center
Fri 01:31:30 PM 27.2189 -80.7456 335° Northwest 387 445 19,900 -1,750 Descending Miami Center
Fri 01:32:30 PM 27.3097 -80.7906 336° Northwest 375 432 18,700 -1,450 Descending Miami Center
Fri 01:33:30 PM 27.3900 -80.8331 335° Northwest 345 397 17,000 -1,450 Descending Miami Center
Fri 01:34:30 PM 27.4681 -80.8733 335° Northwest 326 375 15,800 -1,350 Descending Miami Center
Fri 01:35:30 PM 27.5483 -80.9136 336° Northwest 310 357 14,300 -1,581 Descending Miami Center
Fri 01:37:17 PM 27.6833 -80.9833 335° Northwest 295 339 11,400 -1,222 Descending Orlando TRACON
Fri 01:38:12 PM 27.7500 -81.0167 336° Northwest 297 342 11,000 -211 Descending Orlando TRACON
Fri 01:39:11 PM 27.8333 -81.0500 341° North 301 346 11,000  Level Orlando TRACON
Fri 01:40:11 PM 27.9000 -81.1000 326° Northwest 298 343 11,000  Level Orlando TRACON
Fri 01:41:12 PM 27.9833 -81.1333 341° North 302 348 11,000  Level Orlando TRACON
Fri 01:42:12 PM 28.0667 -81.1500 350° North 295 339 11,000 -762 Level Orlando TRACON
Fri 01:43:18 PM 28.1500 -81.1833 341° North 293 337 9,400 -1,429 Descending Orlando TRACON
Fri 01:44:18 PM 28.2333 -81.1833 360° North 291 335 8,000 -1,400 Descending Orlando TRACON
Fri 01:45:18 PM 28.3167 -81.1833 360° North 284 327 6,600 -992 Descending Orlando TRACON
Fri 01:46:19 PM 28.3833 -81.1833 360° North 240 276 6,000 -793 Descending Orlando TRACON
Fri 01:47:19 PM 28.4500 -81.1833 360° North 231 266 5,000 -900 Descending Orlando TRACON
Fri 01:48:19 PM 28.5000 -81.1833 360° North 227 261 4,200 -1,381 Descending Orlando TRACON
Fri 01:49:25 PM 28.5167 -81.2500 286° West 212 244 2,100 -1,619 Descending Orlando TRACON
Fri 01:50:25 PM 28.4833 -81.2833 221° Southwest 182 209 800 -1,300 Descending Orlando TRACON

Login

Don't have an account? Register now (free) for customized features, flight alerts, and more!